This is the latest recevied weather packets stored in our database for station/object VA3WWD-2. If no packets are shown the sender has not sent any weather packets the latest 10 day(s).
| Time | Temp. | Humidity | Pressure | Rain* | Wind** | Luminosity | Snow |
|---|---|---|---|---|---|---|---|
| 1777654573 | 6.11° C | 39% | - | 0 mm | 0 m/s | - | - |
| 1777654275 | 6.11° C | 36% | - | 0 mm | 0 m/s | - | - |
| 1777653974 | 6.11° C | 39% | - | 0 mm | 0 m/s | - | - |
| 1777653676 | 5.56° C | 42% | - | 0 mm | 0 m/s | - | - |
| 1777653078 | 6.11° C | 41% | - | 0 mm | 0 m/s | - | - |
| 1777652779 | 5.56° C | 43% | - | 0 mm | 0 m/s | - | - |
| 1777652481 | 6.11° C | 43% | - | 0 mm | 0 m/s | - | - |
| 1777652181 | 5° C | 43% | - | 0 mm | 0 m/s | - | - |
| 1777651585 | 6.11° C | 40% | - | 0 mm | 0 m/s | - | - |
| 1777651284 | 6.11° C | 44% | - | 0 mm | 0 m/s | - | - |
| 1777650986 | 7.22° C | 39% | - | 0 mm | 0 m/s | - | - |
| 1777650688 | 5.56° C | 43% | - | 0 mm | 0 m/s | - | - |
| 1777650387 | 5.56° C | 41% | - | 0 mm | 0 m/s | - | - |
| 1777650089 | 6.67° C | 41% | - | 0 mm | 0 m/s | - | - |
| 1777649791 | 6.11° C | 43% | - | 0 mm | 0 m/s | - | - |
| 1777649490 | 5.56° C | 42% | - | 0 mm | 0 m/s | - | - |
| 1777649192 | 5.56° C | 44% | - | 0 mm | 0 m/s | - | - |
| 1777648894 | 6.11° C | 44% | - | 0 mm | 0 m/s | - | - |
| 1777648295 | 5.56° C | 47% | - | 0 mm | 0 m/s | - | - |
| 1777647997 | 5° C | 46% | - | 0 mm | 0 m/s | - | - |
| 1777647749 | 5° C | 47% | - | 0 mm | 0 m/s | - | - |
| 1777647398 | 5° C | 49% | - | 0 mm | 0 m/s | - | - |
| 1777646203 | 5° C | 54% | - | 0 mm | 0 m/s | - | - |
| 1777645604 | 3.89° C | 56% | - | 0 mm | 0 m/s | - | - |
| 1777645005 | 3.89° C | 58% | - | 0 mm | 0 m/s | - | - |
* Rain latest hour (hover to see other rain measurements)
** Current wind speed in m/s (hover to see current wind gust speed)